createdAt,value
2022-08-09T00:00:25.312Z,17.89
2022-08-09T00:01:25.394Z,17.89
2022-08-09T00:02:25.852Z,17.89
2022-08-09T00:04:10.602Z,17.89
2022-08-09T00:04:39.198Z,17.84
2022-08-09T00:06:19.504Z,17.81
2022-08-09T00:06:27.685Z,17.80
2022-08-09T00:07:25.221Z,17.81
2022-08-09T00:08:32.500Z,17.81
2022-08-09T00:09:25.190Z,17.84
2022-08-09T00:10:25.194Z,17.83
2022-08-09T00:11:27.745Z,17.86
2022-08-09T00:12:25.163Z,17.87
2022-08-09T00:13:25.166Z,17.87
2022-08-09T00:14:36.244Z,17.84
2022-08-09T00:15:26.693Z,17.79
2022-08-09T00:16:26.389Z,17.79
2022-08-09T00:18:05.056Z,17.77
2022-08-09T00:18:25.115Z,17.79
2022-08-09T00:19:25.078Z,17.77
2022-08-09T00:20:25.074Z,17.76
2022-08-09T00:21:25.091Z,17.73
2022-08-09T00:22:25.071Z,17.74
2022-08-09T00:23:57.368Z,17.73
2022-08-09T00:24:25.024Z,17.74
2022-08-09T00:25:32.079Z,17.76
2022-08-09T00:26:29.873Z,17.73
2022-08-09T00:27:25.014Z,17.70
2022-08-09T00:28:26.521Z,17.68
2022-08-09T00:30:10.021Z,17.63
2022-08-09T00:30:30.560Z,17.60
2022-08-09T00:31:58.132Z,17.57
2022-08-09T00:32:26.539Z,17.54
2022-08-09T00:33:32.617Z,17.54
2022-08-09T00:34:24.917Z,17.53
2022-08-09T00:35:24.902Z,17.51
2022-08-09T00:36:27.116Z,17.49
2022-08-09T00:37:24.905Z,17.47
2022-08-09T00:38:24.863Z,17.43
2022-08-09T00:40:09.206Z,17.42
2022-08-09T00:40:30.092Z,17.40
2022-08-09T00:44:10.159Z,17.39
2022-08-09T00:44:26.918Z,17.39
2022-08-09T00:44:32.886Z,17.39
2022-08-09T00:45:34.735Z,17.42
2022-08-09T00:46:57.445Z,17.43
2022-08-09T00:47:35.834Z,17.40
2022-08-09T00:48:32.667Z,17.40
2022-08-09T00:49:32.663Z,17.42
2022-08-09T00:50:32.656Z,17.40
2022-08-09T00:51:33.911Z,17.38
2022-08-09T00:52:32.775Z,17.35
2022-08-09T00:53:32.628Z,17.33
2022-08-09T00:54:35.383Z,17.32
2022-08-09T00:56:03.094Z,17.28
2022-08-09T00:56:32.619Z,17.25
2022-08-09T00:57:34.860Z,17.22
2022-08-09T00:58:32.585Z,17.20
2022-08-09T00:59:40.961Z,17.18
2022-08-09T01:00:32.541Z,17.15
2022-08-09T01:01:32.634Z,17.12
2022-08-09T01:02:32.664Z,17.06
2022-08-09T01:03:32.669Z,17.05
2022-08-09T01:04:32.478Z,17.00
2022-08-09T01:05:53.725Z,16.98
2022-08-09T01:06:35.192Z,16.98
2022-08-09T01:07:37.720Z,16.96
2022-08-09T01:08:32.431Z,17.00
2022-08-09T01:09:36.633Z,17.00
2022-08-09T01:10:32.427Z,17.02
2022-08-09T01:11:32.516Z,17.05
2022-08-09T01:12:32.726Z,17.06
2022-08-09T01:13:41.983Z,17.09
2022-08-09T01:14:32.381Z,17.09
2022-08-09T01:15:32.400Z,17.09
2022-08-09T01:16:32.366Z,17.10
2022-08-09T01:17:34.326Z,17.14
2022-08-09T01:18:32.348Z,17.06
2022-08-09T01:19:43.075Z,17.02
2022-08-09T01:20:32.304Z,17.02
2022-08-09T01:21:44.869Z,16.99
2022-08-09T01:22:32.624Z,16.95
2022-08-09T01:24:03.596Z,16.92
2022-08-09T01:24:32.281Z,16.84
2022-08-09T01:25:32.292Z,16.82
2022-08-09T01:26:32.261Z,16.81
2022-08-09T01:27:32.251Z,16.81
2022-08-09T01:28:32.204Z,16.78
2022-08-09T01:29:41.341Z,16.77
2022-08-09T01:30:35.812Z,16.75
2022-08-09T01:32:29.146Z,16.78
2022-08-09T01:32:37.087Z,16.77
2022-08-09T01:33:32.156Z,16.75
2022-08-09T01:34:32.146Z,16.77
2022-08-09T01:35:38.529Z,16.78
2022-08-09T01:36:32.180Z,16.78
2022-08-09T01:37:43.176Z,16.80
2022-08-09T01:38:32.119Z,16.80
2022-08-09T01:39:32.146Z,16.75
2022-08-09T01:40:32.114Z,16.67
2022-08-09T01:41:32.111Z,16.66
2022-08-09T01:42:32.250Z,16.63
2022-08-09T01:43:32.053Z,16.62
2022-08-09T01:44:32.795Z,16.60
2022-08-09T01:45:32.019Z,16.57
2022-08-09T01:46:32.477Z,16.57
2022-08-09T01:47:31.998Z,16.57
2022-08-09T01:48:31.986Z,16.57
2022-08-09T01:49:39.106Z,16.55
2022-08-09T01:50:37.299Z,16.59
2022-08-09T01:51:32.171Z,16.57
2022-08-09T01:52:32.141Z,16.57
2022-08-09T01:53:41.368Z,16.59
2022-08-09T01:54:33.039Z,16.57
2022-08-09T01:55:31.932Z,16.59
2022-08-09T01:56:31.985Z,16.59
2022-08-09T01:57:31.896Z,16.60
2022-08-09T01:58:31.938Z,16.59
2022-08-09T01:59:32.213Z,16.60
2022-08-09T02:00:35.409Z,16.60
2022-08-09T02:01:59.208Z,16.59
2022-08-09T02:02:32.684Z,16.59
2022-08-09T02:03:31.827Z,16.59
2022-08-09T02:04:31.815Z,16.55
2022-08-09T02:05:35.436Z,16.54
2022-08-09T02:06:32.343Z,16.51
2022-08-09T02:08:40.140Z,16.52
2022-08-09T02:09:02.977Z,16.54
2022-08-09T02:09:42.336Z,16.52
2022-08-09T02:10:31.753Z,16.51
2022-08-09T02:11:42.851Z,16.50
2022-08-09T02:12:31.799Z,16.50
2022-08-09T02:13:37.613Z,16.51
2022-08-09T02:14:31.700Z,16.52
2022-08-09T02:15:36.252Z,16.51
2022-08-09T02:16:35.191Z,16.51
2022-08-09T02:17:59.354Z,16.48
2022-08-09T02:18:31.653Z,16.47
2022-08-09T02:19:38.582Z,16.45
2022-08-09T02:20:33.857Z,16.44
2022-08-09T02:21:31.648Z,16.41
2022-08-09T02:22:35.706Z,16.36
2022-08-09T02:23:32.042Z,16.33
2022-08-09T02:24:31.669Z,16.29
2022-08-09T02:25:31.565Z,16.30
2022-08-09T02:26:31.607Z,16.30
2022-08-09T02:27:57.967Z,16.30
2022-08-09T02:28:31.576Z,16.30
2022-08-09T02:29:32.764Z,16.29
2022-08-09T02:30:31.573Z,16.30
2022-08-09T02:31:35.496Z,16.29
2022-08-09T02:32:31.740Z,16.27
2022-08-09T02:33:37.886Z,16.29
2022-08-09T02:34:41.508Z,16.27
2022-08-09T02:36:02.134Z,16.26
2022-08-09T02:36:31.486Z,16.25
2022-08-09T02:37:33.046Z,16.18
2022-08-09T02:38:31.424Z,16.16
2022-08-09T02:39:34.186Z,16.17
2022-08-09T02:40:31.463Z,16.18
2022-08-09T02:41:31.426Z,16.18
2022-08-09T02:42:31.766Z,16.22
2022-08-09T02:43:31.414Z,16.23
2022-08-09T02:44:31.385Z,16.25
2022-08-09T02:45:31.373Z,16.27
2022-08-09T02:46:31.383Z,16.29
2022-08-09T02:47:33.910Z,16.30
2022-08-09T02:48:31.697Z,16.33
2022-08-09T02:49:38.847Z,16.33
2022-08-09T02:50:31.297Z,16.29
2022-08-09T02:51:33.031Z,16.29
2022-08-09T02:52:31.560Z,16.29
2022-08-09T02:53:31.257Z,16.32
2022-08-09T02:54:31.653Z,16.32
2022-08-09T02:55:46.628Z,16.30
2022-08-09T02:56:31.274Z,16.30
2022-08-09T02:57:31.277Z,16.30
2022-08-09T02:58:35.629Z,16.30
2022-08-09T02:59:36.069Z,16.32
2022-08-09T03:00:31.219Z,16.30
2022-08-09T03:01:58.510Z,16.29
2022-08-09T03:02:31.545Z,16.27
2022-08-09T03:04:12.681Z,16.26
2022-08-09T03:04:31.129Z,16.25
2022-08-09T03:05:34.345Z,16.18
2022-08-09T03:06:31.230Z,16.11
2022-08-09T03:07:31.108Z,16.08
2022-08-09T03:08:31.078Z,16.10
2022-08-09T03:09:33.587Z,16.08
2022-08-09T03:10:31.077Z,16.11
2022-08-09T03:12:05.743Z,16.10
2022-08-09T03:12:31.243Z,16.11
2022-08-09T03:13:43.896Z,16.11
2022-08-09T03:14:31.084Z,16.13
2022-08-09T03:15:40.463Z,16.14
2022-08-09T03:16:31.069Z,16.16
2022-08-09T03:17:31.052Z,16.16
2022-08-09T03:18:31.474Z,16.17
2022-08-09T03:19:52.850Z,16.16
2022-08-09T03:20:31.003Z,16.17
2022-08-09T03:21:39.459Z,16.17
2022-08-09T03:22:31.112Z,16.16
2022-08-09T03:23:30.954Z,16.17
2022-08-09T03:24:42.110Z,16.18
2022-08-09T03:25:59.365Z,16.22
2022-08-09T03:26:32.193Z,16.22
2022-08-09T03:27:30.890Z,16.17
2022-08-09T03:28:30.912Z,16.17
2022-08-09T03:29:30.854Z,16.16
2022-08-09T03:30:34.497Z,16.16
2022-08-09T03:31:30.888Z,16.16
2022-08-09T03:32:31.454Z,16.11
2022-08-09T03:33:53.145Z,16.10
2022-08-09T03:34:30.821Z,16.07
2022-08-09T03:36:13.569Z,16.04
2022-08-09T03:36:30.815Z,16.04
2022-08-09T03:37:55.316Z,16.01
2022-08-09T03:38:30.761Z,15.99
2022-08-09T03:39:37.896Z,15.99
2022-08-09T03:40:30.845Z,15.98
2022-08-09T03:41:45.968Z,15.98
2022-08-09T03:42:31.034Z,15.98
2022-08-09T03:43:32.200Z,15.95
2022-08-09T03:44:32.053Z,15.93
2022-08-09T03:46:03.911Z,15.92
2022-08-09T03:46:30.689Z,15.93
2022-08-09T03:47:30.666Z,15.92
2022-08-09T03:48:31.129Z,15.95
2022-08-09T03:49:35.626Z,15.96
2022-08-09T03:50:31.839Z,15.95
2022-08-09T03:51:57.700Z,15.93
2022-08-09T03:52:30.789Z,15.93
2022-08-09T03:53:32.201Z,15.92
2022-08-09T03:54:31.204Z,15.89
2022-08-09T03:55:36.150Z,15.88
2022-08-09T03:56:30.585Z,15.88
2022-08-09T03:57:30.534Z,15.89
2022-08-09T03:58:30.539Z,15.88
2022-08-09T03:59:42.841Z,15.85
2022-08-09T04:00:30.553Z,15.81
2022-08-09T04:01:30.522Z,15.76
2022-08-09T04:02:30.813Z,15.74
2022-08-09T04:03:45.957Z,15.74
2022-08-09T04:04:32.535Z,15.74
2022-08-09T04:05:32.259Z,15.74
2022-08-09T04:06:30.532Z,15.74
2022-08-09T04:07:33.790Z,15.74
2022-08-09T04:08:30.408Z,15.74
2022-08-09T04:09:48.214Z,15.73
2022-08-09T04:10:30.633Z,15.73
2022-08-09T04:11:30.395Z,15.73
2022-08-09T04:12:31.559Z,15.74
2022-08-09T04:14:37.305Z,15.74
2022-08-09T04:15:02.097Z,15.76
2022-08-09T04:15:52.263Z,15.76
2022-08-09T04:16:30.401Z,15.76
2022-08-09T04:17:30.316Z,15.76
2022-08-09T04:18:30.277Z,15.77
2022-08-09T04:19:42.834Z,15.76
2022-08-09T04:20:30.294Z,15.76
2022-08-09T04:21:30.290Z,15.76
2022-08-09T04:22:30.483Z,15.77
2022-08-09T04:23:30.303Z,15.77
2022-08-09T04:24:30.233Z,15.78
2022-08-09T04:25:30.225Z,15.78
2022-08-09T04:26:37.930Z,15.78
2022-08-09T04:27:30.206Z,15.78
2022-08-09T04:28:33.103Z,15.78
2022-08-09T04:29:30.182Z,15.77
2022-08-09T04:30:30.187Z,15.77
2022-08-09T04:31:37.514Z,15.77
2022-08-09T04:32:33.679Z,15.76
2022-08-09T04:33:30.125Z,15.77
2022-08-09T04:34:31.731Z,15.78
2022-08-09T04:35:32.949Z,15.76
2022-08-09T04:36:30.172Z,15.77
2022-08-09T04:37:42.053Z,15.76
2022-08-09T04:38:30.063Z,15.73
2022-08-09T04:39:31.151Z,15.73
2022-08-09T04:40:36.457Z,15.73
2022-08-09T04:41:33.363Z,15.74
2022-08-09T04:42:30.423Z,15.71
2022-08-09T04:43:30.006Z,15.73
2022-08-09T04:44:29.998Z,15.74
2022-08-09T04:45:30.614Z,15.74
2022-08-09T04:46:57.023Z,15.74
2022-08-09T04:47:33.202Z,15.77
2022-08-09T04:48:33.382Z,15.78
2022-08-09T04:49:40.663Z,15.80
2022-08-09T04:50:33.701Z,15.80
2022-08-09T04:51:29.937Z,15.81
2022-08-09T04:52:29.893Z,15.85
2022-08-09T04:53:31.303Z,15.88
2022-08-09T04:54:29.876Z,15.91
2022-08-09T04:55:58.507Z,15.92
2022-08-09T04:56:29.876Z,15.92
2022-08-09T04:57:58.956Z,15.91
2022-08-09T04:58:31.824Z,15.92
2022-08-09T04:59:30.099Z,15.93
2022-08-09T05:00:31.624Z,15.95
2022-08-09T05:01:29.801Z,15.96
2022-08-09T05:02:29.815Z,15.98
2022-08-09T05:03:41.058Z,15.99
2022-08-09T05:04:30.991Z,15.98
2022-08-09T05:05:31.753Z,16.01
2022-08-09T05:06:33.895Z,16.01
2022-08-09T05:07:32.049Z,16.03
2022-08-09T05:08:29.720Z,16.06
2022-08-09T05:09:41.926Z,16.08
2022-08-09T05:10:29.698Z,16.13
2022-08-09T05:11:30.635Z,16.13
2022-08-09T05:12:29.677Z,16.16
2022-08-09T05:13:33.189Z,16.17
2022-08-09T05:14:29.740Z,16.18
2022-08-09T05:15:39.251Z,16.17
2022-08-09T05:16:31.448Z,16.22
2022-08-09T05:18:38.521Z,16.22
2022-08-09T05:19:02.872Z,16.18
2022-08-09T05:19:31.933Z,16.17
2022-08-09T05:20:30.318Z,16.16
2022-08-09T05:21:30.141Z,16.16
2022-08-09T05:22:35.688Z,16.23
2022-08-09T05:24:00.209Z,16.25
2022-08-09T05:24:29.550Z,16.30
2022-08-09T05:25:32.387Z,16.34
2022-08-09T05:26:36.791Z,16.36
2022-08-09T05:27:31.062Z,16.41
2022-08-09T05:28:29.498Z,16.45
2022-08-09T05:29:31.637Z,16.48
2022-08-09T05:30:29.978Z,16.48
2022-08-09T05:31:44.087Z,16.48
2022-08-09T05:32:30.088Z,16.52
2022-08-09T05:33:33.103Z,16.52
2022-08-09T05:34:30.955Z,16.55
2022-08-09T05:35:29.403Z,16.57
2022-08-09T05:36:29.446Z,16.60
2022-08-09T05:37:29.374Z,16.63
2022-08-09T05:38:29.398Z,16.67
2022-08-09T05:39:36.207Z,16.72
2022-08-09T05:40:29.379Z,16.78
2022-08-09T05:41:29.363Z,16.81
2022-08-09T05:42:29.371Z,16.80
2022-08-09T05:43:31.987Z,16.84
2022-08-09T05:44:32.745Z,16.84
2022-08-09T05:45:52.687Z,16.85
2022-08-09T05:46:29.319Z,16.85
2022-08-09T05:47:30.431Z,16.87
2022-08-09T05:48:33.224Z,16.91
2022-08-09T05:50:24.042Z,16.95
2022-08-09T05:50:57.112Z,16.98
2022-08-09T05:51:42.664Z,17.03
2022-08-09T05:52:31.663Z,17.03
2022-08-09T05:53:32.501Z,17.05
2022-08-09T05:54:29.220Z,17.10
2022-08-09T05:55:29.234Z,17.12
2022-08-09T05:56:29.297Z,17.15
2022-08-09T05:57:55.917Z,17.06
2022-08-09T05:58:29.259Z,17.06
2022-08-09T05:59:29.182Z,17.05
2022-08-09T06:00:29.821Z,17.06
2022-08-09T06:01:33.953Z,17.03
2022-08-09T06:02:29.353Z,17.09
2022-08-09T06:03:34.813Z,17.14
2022-08-09T06:04:34.796Z,17.21
2022-08-09T06:05:50.480Z,17.28
2022-08-09T06:06:29.158Z,17.28
2022-08-09T06:07:29.113Z,17.35
2022-08-09T06:08:29.064Z,17.42
2022-08-09T06:09:54.499Z,17.46
2022-08-09T06:10:29.014Z,17.53
2022-08-09T06:11:41.021Z,17.43
2022-08-09T06:12:29.154Z,17.51
2022-08-09T06:13:33.554Z,17.57
2022-08-09T06:14:29.014Z,17.66
2022-08-09T06:15:29.002Z,17.76
2022-08-09T06:16:29.474Z,17.80
2022-08-09T06:17:40.173Z,17.86
2022-08-09T06:18:28.942Z,17.94
2022-08-09T06:19:28.914Z,17.98
2022-08-09T06:20:28.899Z,18.04
2022-08-09T06:21:28.879Z,18.10
2022-08-09T06:22:29.138Z,18.09
2022-08-09T06:23:55.056Z,18.11
2022-08-09T06:24:28.864Z,18.13
2022-08-09T06:25:28.999Z,18.14
2022-08-09T06:26:29.017Z,18.17
2022-08-09T06:27:42.260Z,18.17
2022-08-09T06:28:32.000Z,18.13
2022-08-09T06:29:28.802Z,18.17
2022-08-09T06:30:28.815Z,18.25
2022-08-09T06:31:31.273Z,18.32
2022-08-09T06:33:00.111Z,18.35
2022-08-09T06:33:39.737Z,18.41
2022-08-09T06:34:30.630Z,18.46
2022-08-09T06:35:55.788Z,18.51
2022-08-09T06:36:29.940Z,18.60
2022-08-09T06:37:28.858Z,18.65
2022-08-09T06:38:32.196Z,18.71
2022-08-09T06:39:48.872Z,18.76
2022-08-09T06:40:28.850Z,18.84
2022-08-09T06:42:09.467Z,18.87
2022-08-09T06:42:30.800Z,18.86
2022-08-09T06:43:34.297Z,18.90
2022-08-09T06:44:28.738Z,18.94
2022-08-09T06:46:08.031Z,19.01
2022-08-09T06:46:40.302Z,19.12
2022-08-09T06:47:30.276Z,19.20
2022-08-09T06:48:30.424Z,19.25
2022-08-09T06:49:44.730Z,19.27
2022-08-09T06:50:30.958Z,19.27
2022-08-09T06:51:28.551Z,19.17
2022-08-09T06:52:28.539Z,19.20
2022-08-09T06:53:38.009Z,19.27
2022-08-09T06:54:28.533Z,19.16
2022-08-09T06:55:28.485Z,19.17
2022-08-09T06:56:30.597Z,19.27
2022-08-09T06:58:02.119Z,19.38
2022-08-09T07:00:46.881Z,19.45
2022-08-09T07:01:01.517Z,19.43
2022-08-09T07:01:06.512Z,19.52
2022-08-09T07:02:06.726Z,19.57
2022-08-09T07:03:07.254Z,19.60
2022-08-09T07:04:06.480Z,19.65
2022-08-09T07:05:06.476Z,19.61
2022-08-09T07:06:06.526Z,19.68
2022-08-09T07:07:06.485Z,19.78
2022-08-09T07:08:06.461Z,19.89
2022-08-09T07:09:06.539Z,20.01
2022-08-09T07:10:18.058Z,20.10
2022-08-09T07:11:07.153Z,20.15
2022-08-09T07:12:06.401Z,20.04
2022-08-09T07:13:27.238Z,20.07
2022-08-09T07:14:06.564Z,20.10
2022-08-09T07:16:36.573Z,20.17
2022-08-09T07:16:53.505Z,20.13
2022-08-09T07:17:08.247Z,20.20
2022-08-09T07:18:06.320Z,20.22
2022-08-09T07:19:06.356Z,20.31
2022-08-09T07:20:06.352Z,20.42
2022-08-09T07:21:07.646Z,20.54
2022-08-09T07:22:06.282Z,20.68
2022-08-09T07:23:18.101Z,20.73
2022-08-09T07:24:06.428Z,20.81
2022-08-09T07:25:09.711Z,20.85
2022-08-09T07:26:06.273Z,20.90
2022-08-09T07:27:10.869Z,20.87
2022-08-09T07:28:06.237Z,20.93
2022-08-09T07:29:11.996Z,21.01
2022-08-09T07:30:06.226Z,21.09
2022-08-09T07:31:06.260Z,21.18
2022-08-09T07:32:06.202Z,21.27
2022-08-09T07:33:12.338Z,21.33
2022-08-09T07:34:06.195Z,21.30
2022-08-09T07:35:10.685Z,21.13
2022-08-09T07:36:06.203Z,21.09
2022-08-09T07:37:06.593Z,21.11
2022-08-09T07:38:06.106Z,21.19
2022-08-09T07:39:06.226Z,21.30
2022-08-09T07:40:06.263Z,21.33
2022-08-09T07:41:11.584Z,21.37
2022-08-09T07:42:06.406Z,21.42
2022-08-09T07:43:07.148Z,21.49
2022-08-09T07:44:06.092Z,21.59
2022-08-09T07:45:15.070Z,21.67
2022-08-09T07:46:06.133Z,21.73
2022-08-09T07:47:06.039Z,21.67
2022-08-09T07:48:05.998Z,21.70
2022-08-09T07:49:05.961Z,21.82
2022-08-09T07:50:07.919Z,21.85
2022-08-09T07:52:03.401Z,21.81
2022-08-09T07:52:17.891Z,21.73
2022-08-09T07:53:05.958Z,21.53
2022-08-09T07:54:07.567Z,21.61
2022-08-09T07:55:09.580Z,21.74
2022-08-09T07:56:06.784Z,21.93
2022-08-09T07:57:11.768Z,22.06
2022-08-09T07:58:06.475Z,22.19
2022-08-09T07:59:14.161Z,22.31
2022-08-09T08:00:09.015Z,22.39
2022-08-09T08:01:06.230Z,22.35
2022-08-09T08:02:05.922Z,22.39
2022-08-09T08:03:08.280Z,22.31
2022-08-09T08:04:10.522Z,22.36
2022-08-09T08:05:17.777Z,22.44
2022-08-09T08:06:05.864Z,22.56
2022-08-09T08:07:14.932Z,22.61
2022-08-09T08:09:03.972Z,22.64
2022-08-09T08:09:10.371Z,22.46
2022-08-09T08:10:10.645Z,22.54
2022-08-09T08:12:10.077Z,22.67
2022-08-09T08:12:29.960Z,22.81
2022-08-09T08:13:05.706Z,22.86
2022-08-09T08:14:06.316Z,22.93
2022-08-09T08:15:05.734Z,23.04
2022-08-09T08:16:05.716Z,22.99
2022-08-09T08:17:08.667Z,23.01
2022-08-09T08:18:05.663Z,23.12
2022-08-09T08:19:05.796Z,23.21
2022-08-09T08:20:13.001Z,23.31
2022-08-09T08:21:05.677Z,23.39
2022-08-09T08:22:05.601Z,23.41
2022-08-09T08:23:16.683Z,23.37
2022-08-09T08:24:11.487Z,23.39
2022-08-09T08:25:05.657Z,23.47
2022-08-09T08:26:07.984Z,23.42
2022-08-09T08:27:05.533Z,23.45
2022-08-09T08:28:05.620Z,23.47
2022-08-09T08:29:05.524Z,23.47
2022-08-09T08:30:05.509Z,23.45
2022-08-09T08:31:13.960Z,23.50
2022-08-09T08:32:06.016Z,23.47
2022-08-09T08:33:05.495Z,23.49
2022-08-09T08:34:05.460Z,23.59
2022-08-09T08:35:05.446Z,23.62
2022-08-09T08:36:05.465Z,23.68
2022-08-09T08:37:05.489Z,23.77
2022-08-09T08:38:11.854Z,23.79
2022-08-09T08:39:05.507Z,23.78
2022-08-09T08:40:05.471Z,23.67
2022-08-09T08:41:06.143Z,23.74
2022-08-09T08:42:05.366Z,23.75
2022-08-09T08:43:13.264Z,23.84
2022-08-09T08:44:05.381Z,23.99
2022-08-09T08:45:11.771Z,24.05
2022-08-09T08:46:31.780Z,24.15
2022-08-09T08:47:12.975Z,24.12
2022-08-09T08:48:05.403Z,24.00
2022-08-09T08:49:05.324Z,23.92
2022-08-09T08:50:05.289Z,23.60
2022-08-09T08:51:05.289Z,23.67
2022-08-09T08:52:10.094Z,23.78
2022-08-09T08:53:05.558Z,23.39
2022-08-09T08:54:05.261Z,23.32
2022-08-09T08:55:05.743Z,23.19
2022-08-09T08:56:05.246Z,23.23
2022-08-09T08:57:11.359Z,23.34
2022-08-09T08:58:05.194Z,23.56
2022-08-09T08:59:18.721Z,23.78
2022-08-09T09:00:12.820Z,23.82
2022-08-09T09:01:09.142Z,23.81
2022-08-09T09:02:05.560Z,23.94
2022-08-09T09:03:11.465Z,24.11
2022-08-09T09:04:05.199Z,24.30
2022-08-09T09:05:09.998Z,24.49
2022-08-09T09:06:05.481Z,24.68
2022-08-09T09:07:05.685Z,24.83
2022-08-09T09:08:05.083Z,24.90
2022-08-09T09:09:06.708Z,25.01
2022-08-09T09:10:08.927Z,25.16
2022-08-09T09:11:05.659Z,24.99
2022-08-09T09:12:10.251Z,24.63
2022-08-09T09:13:09.307Z,24.51
2022-08-09T09:14:05.063Z,24.46
2022-08-09T09:15:05.637Z,24.63
2022-08-09T09:16:05.027Z,24.84
2022-08-09T09:17:05.893Z,25.05
2022-08-09T09:18:05.073Z,25.24
2022-08-09T09:20:05.031Z,25.45
2022-08-09T09:21:04.994Z,25.48
2022-08-09T09:22:05.380Z,25.57
2022-08-09T09:23:04.918Z,25.71
2022-08-09T09:24:10.352Z,25.76
2022-08-09T09:26:00.362Z,25.82
2022-08-09T09:26:12.232Z,25.89
2022-08-09T09:27:04.868Z,25.97
2022-08-09T09:28:10.772Z,25.93
2022-08-09T09:29:10.998Z,25.98
2022-08-09T09:30:12.068Z,26.00
2022-08-09T09:31:04.870Z,26.04
2022-08-09T09:32:14.956Z,25.64
2022-08-09T09:33:15.576Z,25.56
2022-08-09T09:34:04.924Z,25.48
2022-08-09T09:35:07.649Z,25.63
2022-08-09T09:36:19.913Z,25.83
2022-08-09T09:37:04.800Z,26.03
2022-08-09T09:38:04.800Z,26.03
2022-08-09T09:39:05.913Z,25.96
2022-08-09T09:40:04.771Z,25.76
2022-08-09T09:41:04.753Z,25.86
2022-08-09T09:42:07.672Z,25.94
2022-08-09T09:43:04.759Z,25.59
2022-08-09T09:44:12.490Z,25.24
2022-08-09T09:45:04.679Z,25.29
2022-08-09T09:47:04.659Z,25.53
2022-08-09T09:48:04.896Z,25.54
2022-08-09T09:49:04.630Z,25.63
2022-08-09T09:50:14.815Z,25.78
2022-08-09T09:51:04.700Z,25.94
2022-08-09T09:52:04.639Z,26.17
2022-08-09T09:53:10.457Z,26.32
2022-08-09T09:54:10.591Z,26.50
2022-08-09T09:55:16.595Z,26.65
2022-08-09T09:56:05.375Z,26.65
2022-08-09T09:58:02.195Z,26.65
2022-08-09T09:58:18.682Z,26.42
2022-08-09T09:59:04.545Z,26.51
2022-08-09T10:00:04.503Z,26.56
2022-08-09T10:01:04.536Z,26.49
2022-08-09T10:02:04.597Z,26.51
2022-08-09T10:03:11.715Z,26.72
2022-08-09T10:04:09.544Z,26.78
2022-08-09T10:05:06.619Z,26.86
2022-08-09T10:06:05.081Z,26.86
2022-08-09T10:07:09.864Z,26.61
2022-08-09T10:08:25.943Z,26.56
2022-08-09T10:09:21.739Z,26.65
2022-08-09T10:10:04.408Z,26.79
2022-08-09T10:11:30.879Z,26.97
2022-08-09T10:12:26.808Z,27.05
2022-08-09T10:13:04.377Z,26.71
2022-08-09T10:14:04.354Z,26.68
2022-08-09T10:15:04.356Z,26.56
2022-08-09T10:16:55.801Z,26.60
2022-08-09T10:17:24.097Z,26.28
2022-08-09T10:18:04.305Z,25.94
2022-08-09T10:19:04.321Z,25.79
2022-08-09T10:20:04.392Z,25.86
2022-08-09T10:21:04.309Z,26.11
2022-08-09T10:22:04.270Z,26.41
2022-08-09T10:23:04.321Z,26.59
2022-08-09T10:24:04.290Z,26.75
2022-08-09T10:25:12.102Z,26.83
2022-08-09T10:26:08.127Z,26.73
2022-08-09T10:27:10.147Z,26.86
2022-08-09T10:28:04.287Z,26.98
2022-08-09T10:29:32.750Z,27.15
2022-08-09T10:32:27.786Z,27.02
2022-08-09T10:32:43.282Z,27.11
2022-08-09T10:33:04.144Z,27.03
2022-08-09T10:34:10.987Z,27.15
2022-08-09T10:35:04.142Z,27.28
2022-08-09T10:36:04.422Z,27.42
2022-08-09T10:37:04.109Z,27.58
2022-08-09T10:38:04.098Z,27.63
2022-08-09T10:39:13.832Z,27.72
2022-08-09T10:40:04.167Z,27.78
2022-08-09T10:41:04.190Z,27.91
2022-08-09T10:42:04.067Z,28.06
2022-08-09T10:43:04.080Z,27.95
2022-08-09T10:44:04.069Z,27.52
2022-08-09T10:45:04.233Z,27.49
2022-08-09T10:46:04.033Z,27.40
2022-08-09T10:47:20.542Z,27.59
2022-08-09T10:48:29.752Z,27.59
2022-08-09T10:49:03.973Z,27.66
2022-08-09T10:50:03.979Z,27.71
2022-08-09T10:51:03.966Z,27.62
2022-08-09T10:52:03.976Z,27.65
2022-08-09T10:53:03.955Z,27.84
2022-08-09T10:54:05.037Z,28.06
2022-08-09T10:55:03.931Z,28.24
2022-08-09T10:56:04.047Z,28.42
2022-08-09T10:57:03.885Z,28.55
2022-08-09T10:58:03.896Z,28.52
2022-08-09T10:59:03.874Z,28.51
2022-08-09T11:00:04.010Z,28.52
2022-08-09T11:03:05.611Z,28.57
2022-08-09T11:03:50.314Z,28.61
2022-08-09T11:04:01.924Z,28.39
2022-08-09T11:04:32.528Z,28.45
2022-08-09T11:05:31.364Z,28.46
2022-08-09T11:06:31.234Z,27.96
2022-08-09T11:07:57.296Z,28.01
2022-08-09T11:08:33.417Z,28.15
2022-08-09T11:09:33.667Z,28.30
2022-08-09T11:10:31.150Z,28.51
2022-08-09T11:11:31.182Z,28.73
2022-08-09T11:12:31.490Z,28.94
2022-08-09T11:13:50.763Z,28.95
2022-08-09T11:14:31.788Z,28.82
2022-08-09T11:15:33.773Z,28.73
2022-08-09T11:16:33.656Z,28.20
2022-08-09T11:17:31.256Z,28.03
2022-08-09T11:18:31.718Z,28.20
2022-08-09T11:20:10.451Z,28.25
2022-08-09T11:20:31.811Z,27.96
2022-08-09T11:21:30.993Z,27.86
2022-08-09T11:22:30.966Z,28.01
2022-08-09T11:23:30.964Z,28.28
2022-08-09T11:24:30.927Z,28.40
2022-08-09T11:25:45.089Z,28.48
2022-08-09T11:26:30.959Z,28.38
2022-08-09T11:28:04.303Z,28.50
2022-08-09T11:28:34.644Z,28.70
2022-08-09T11:30:06.239Z,28.72
2022-08-09T11:30:38.496Z,28.20
2022-08-09T11:31:36.373Z,28.18
2022-08-09T11:32:31.057Z,28.02
2022-08-09T11:33:30.894Z,27.91
2022-08-09T11:34:30.833Z,27.55
2022-08-09T11:35:35.124Z,27.62
2022-08-09T11:36:35.487Z,27.52
2022-08-09T11:37:40.730Z,27.42
2022-08-09T11:38:33.018Z,27.62
2022-08-09T11:39:37.923Z,28.01
2022-08-09T11:40:30.769Z,28.23
2022-08-09T11:41:38.040Z,28.46
2022-08-09T11:42:31.134Z,28.46
2022-08-09T11:43:32.355Z,28.69
2022-08-09T11:44:30.815Z,28.82
2022-08-09T11:45:42.353Z,28.85
2022-08-09T11:46:33.115Z,29.07
2022-08-09T11:47:30.708Z,29.27
2022-08-09T11:48:31.760Z,29.51
2022-08-09T11:49:42.896Z,29.58
2022-08-09T11:51:21.279Z,29.66
2022-08-09T11:53:58.692Z,29.76
2022-08-09T11:54:12.693Z,29.88
2022-08-09T11:54:27.971Z,29.91
2022-08-09T11:55:18.462Z,29.95
2022-08-09T11:56:19.340Z,29.89
2022-08-09T11:57:18.471Z,29.95
2022-08-09T11:58:18.397Z,29.94
2022-08-09T11:59:18.443Z,29.97
2022-08-09T12:00:24.595Z,29.84
2022-08-09T12:01:37.655Z,29.78
2022-08-09T12:02:36.917Z,29.66
2022-08-09T12:03:55.016Z,29.15
2022-08-09T12:04:20.975Z,29.07
2022-08-09T12:05:22.866Z,29.18
2022-08-09T12:06:18.330Z,29.33
2022-08-09T12:07:18.301Z,29.44
2022-08-09T12:08:20.037Z,29.63
2022-08-09T12:09:20.856Z,29.82
2022-08-09T12:10:38.382Z,29.99
2022-08-09T12:11:18.259Z,30.08
2022-08-09T12:12:20.473Z,30.25
2022-08-09T12:14:09.189Z,30.28
2022-08-09T12:14:36.642Z,30.30
2022-08-09T12:15:18.212Z,30.36
2022-08-09T12:16:30.743Z,30.28
2022-08-09T12:17:23.343Z,30.28
2022-08-09T12:18:18.187Z,30.38
2022-08-09T12:19:18.162Z,30.57
2022-08-09T12:20:22.171Z,30.67
2022-08-09T12:21:28.418Z,30.61
2022-08-09T12:22:18.126Z,30.67
2022-08-09T12:23:18.117Z,30.78
2022-08-09T12:24:18.125Z,30.76
2022-08-09T12:25:18.089Z,30.45
2022-08-09T12:26:19.529Z,30.44
2022-08-09T12:29:10.808Z,30.30
2022-08-09T12:29:43.655Z,29.88
2022-08-09T12:30:03.990Z,29.97
2022-08-09T12:30:40.851Z,29.94
2022-08-09T12:31:59.434Z,29.63
2022-08-09T12:32:36.847Z,29.44
2022-08-09T12:33:59.005Z,29.52
2022-08-09T12:34:36.819Z,29.26
2022-08-09T12:35:40.879Z,29.20
2022-08-09T12:36:36.803Z,29.03
2022-08-09T12:37:50.643Z,28.58
2022-08-09T12:38:38.622Z,28.42
2022-08-09T12:39:37.827Z,28.73
2022-08-09T12:40:36.752Z,28.94
2022-08-09T12:41:40.238Z,29.15
2022-08-09T12:42:37.251Z,29.32
2022-08-09T12:44:04.920Z,29.69
2022-08-09T12:44:37.485Z,29.67
2022-08-09T12:45:38.338Z,29.86
2022-08-09T12:46:36.657Z,30.10
2022-08-09T12:47:37.204Z,30.01
2022-08-09T12:48:37.280Z,30.04
2022-08-09T12:49:36.626Z,29.88
2022-08-09T12:50:36.723Z,29.74
2022-08-09T12:52:01.255Z,29.84
2022-08-09T12:52:42.988Z,29.97
2022-08-09T12:53:38.429Z,30.16
2022-08-09T12:54:36.606Z,30.13
2022-08-09T12:56:15.071Z,30.03
2022-08-09T12:56:48.518Z,30.18
2022-08-09T12:57:36.539Z,30.36
2022-08-09T12:58:42.720Z,30.61